Wetterdaten: Woche 18.12.17 - 24.12.17 (KW51)
Datum Zeit Temp. A. Feuchte A. Luftdruck Regen Wind Richtung Taupunkt Windchill Windben
18.12.2017 00:00 -2,0 C 93 % 1026,5 hPa 0,0 l/m 0,9 km/h (0 Bft) O-NO -3,0 C -2,0 C 3,3 km/h (1 Bft)
18.12.2017 01:00 -2,3 C 93 % 1025,7 hPa 0,0 l/m 2,6 km/h (1 Bft) NO -3,3 C -2,3 C 8,3 km/h (2 Bft)
18.12.2017 02:00 -1,9 C 92 % 1025,2 hPa 0,0 l/m 2,8 km/h (1 Bft) O -3,0 C -1,9 C 7,4 km/h (2 Bft)
18.12.2017 03:00 -1,7 C 91 % 1024,2 hPa 0,0 l/m 5,0 km/h (1 Bft) NO -3,0 C -1,7 C 13,4 km/h (3 Bft)
18.12.2017 04:00 -1,7 C 93 % 1023,2 hPa 0,0 l/m 5,2 km/h (1 Bft) O -2,8 C -1,8 C 13,8 km/h (3 Bft)
18.12.2017 05:00 -1,9 C 95 % 1022,1 hPa 0,0 l/m 5,8 km/h (2 Bft) NO -2,6 C -2,0 C 14,4 km/h (3 Bft)
18.12.2017 06:00 -2,0 C 95 % 1021,3 hPa 0,0 l/m 2,9 km/h (1 Bft) O-NO -2,7 C -2,0 C 6,9 km/h (2 Bft)
18.12.2017 07:00 -2,3 C 95 % 1020,8 hPa 0,0 l/m 2,6 km/h (1 Bft) O-NO -3,0 C -2,3 C 6,8 km/h (2 Bft)
18.12.2017 08:00 -2,2 C 96 % 1020,6 hPa 0,0 l/m 0,9 km/h (0 Bft) O-NO -2,8 C -2,2 C 3,1 km/h (1 Bft)
18.12.2017 09:00 -2,0 C 95 % 1020,8 hPa 0,0 l/m 1,7 km/h (1 Bft) NO -2,7 C -2,0 C 4,8 km/h (1 Bft)
18.12.2017 10:00 -1,7 C 95 % 1021,4 hPa 0,0 l/m 1,4 km/h (1 Bft) O -2,4 C -1,7 C 5,6 km/h (2 Bft)
18.12.2017 11:00 -1,0 C 94 % 1021,8 hPa 0,0 l/m 2,2 km/h (1 Bft) NO -1,9 C -1,0 C 5,4 km/h (2 Bft)
18.12.2017 12:00 -0,6 C 93 % 1021,8 hPa 0,5 l/m 2,0 km/h (1 Bft) NO -1,6 C -0,6 C 5,3 km/h (1 Bft)
18.12.2017 13:00 0,1 C 93 % 1022,7 hPa 0,8 l/m 0,3 km/h (0 Bft) NO -1,0 C 0,1 C 2,5 km/h (1 Bft)
18.12.2017 14:00 0,4 C 94 % 1023,1 hPa 0,5 l/m 0,4 km/h (0 Bft) O-NO -0,5 C 0,4 C 2,4 km/h (1 Bft)
18.12.2017 15:00 0,4 C 94 % 1023,7 hPa 0,3 l/m 0,5 km/h (0 Bft) N-NO -0,4 C 0,4 C 3,1 km/h (1 Bft)
18.12.2017 16:00 0,2 C 95 % 1024,7 hPa 0,3 l/m 0,0 km/h (0 Bft) N-NO -0,5 C 0,2 C 0,4 km/h (0 Bft)
18.12.2017 17:00 -0,1 C 96 % 1025,5 hPa 0,0 l/m 0,0 km/h (0 Bft) N-NO -0,7 C -0,1 C 0,1 km/h (0 Bft)
18.12.2017 18:00 -0,2 C 96 % 1026,1 hPa 0,0 l/m 0,0 km/h (0 Bft) N-NO -0,7 C -0,2 C 0,1 km/h (0 Bft)
18.12.2017 19:00 -0,3 C 96 % 1027,0 hPa 0,0 l/m 0,0 km/h (0 Bft) SO -0,8 C -0,3 C 0,1 km/h (0 Bft)
18.12.2017 20:00 -0,3 C 96 % 1027,6 hPa 0,0 l/m 0,0 km/h (0 Bft) SO -0,9 C -0,3 C 0,0 km/h (0 Bft)
18.12.2017 21:00 -0,3 C 96 % 1028,3 hPa 0,3 l/m 0,0 km/h (0 Bft) SO -0,9 C -0,3 C 0,0 km/h (0 Bft)
18.12.2017 22:00 -0,4 C 96 % 1028,6 hPa 0,0 l/m 0,0 km/h (0 Bft) SO -0,9 C -0,4 C 0,0 km/h (0 Bft)
18.12.2017 23:00 -0,5 C 97 % 1029,2 hPa 0,0 l/m 0,0 km/h (0 Bft) SO -1,0 C -0,5 C 0,0 km/h (0 Bft)
19.12.2017 00:00 -0,5 C 97 % 1029,5 hPa 0,0 l/m 0,0 km/h (0 Bft) SO -0,9 C -0,5 C 0,0 km/h (0 Bft)
19.12.2017 01:00 -0,6 C 97 % 1029,6 hPa 0,0 l/m 0,0 km/h (0 Bft) SO -1,0 C -0,6 C 0,0 km/h (0 Bft)
19.12.2017 02:00 -0,6 C 97 % 1029,8 hPa 0,0 l/m 0,0 km/h (0 Bft) SO -1,1 C -0,6 C 0,0 km/h (0 Bft)
19.12.2017 03:00 -0,7 C 97 % 1030,4 hPa 0,0 l/m 0,0 km/h (0 Bft) SO -1,1 C -0,7 C 0,0 km/h (0 Bft)
19.12.2017 04:00 -0,7 C 97 % 1030,9 hPa 0,0 l/m 0,3 km/h (0 Bft) SO -1,1 C -0,7 C 1,3 km/h (1 Bft)
19.12.2017 05:00 -0,8 C 96 % 1031,2 hPa 0,0 l/m 0,0 km/h (0 Bft) O -1,3 C -0,8 C 0,1 km/h (0 Bft)
19.12.2017 06:00 -0,8 C 97 % 1031,7 hPa 0,0 l/m 0,0 km/h (0 Bft) O -1,2 C -0,8 C 0,1 km/h (0 Bft)
19.12.2017 07:00 -0,8 C 97 % 1032,4 hPa 0,0 l/m 0,0 km/h (0 Bft) O -1,2 C -0,8 C 0,0 km/h (0 Bft)
19.12.2017 08:00 -0,7 C 97 % 1033,2 hPa 0,0 l/m 0,0 km/h (0 Bft) O -1,1 C -0,7 C 0,1 km/h (0 Bft)
19.12.2017 09:00 -0,5 C 97 % 1033,7 hPa 0,0 l/m 0,0 km/h (0 Bft) O -1,0 C -0,5 C 0,8 km/h (0 Bft)
19.12.2017 10:00 -0,3 C 95 % 1034,3 hPa 0,0 l/m 0,1 km/h (0 Bft) SW -0,9 C -0,3 C 1,3 km/h (1 Bft)
19.12.2017 11:00 0,2 C 94 % 1034,4 hPa 0,0 l/m 0,3 km/h (0 Bft) SW -0,6 C 0,2 C 1,0 km/h (0 Bft)
19.12.2017 12:00 0,6 C 94 % 1034,1 hPa 0,5 l/m 0,4 km/h (0 Bft) O -0,3 C 0,6 C 1,5 km/h (1 Bft)
19.12.2017 13:00 0,9 C 93 % 1034,1 hPa 0,8 l/m 0,8 km/h (0 Bft) O -0,1 C 0,9 C 3,6 km/h (1 Bft)
19.12.2017 14:00 0,9 C 93 % 1034,0 hPa 0,3 l/m 1,1 km/h (0 Bft) O-NO -0,1 C 0,9 C 4,3 km/h (1 Bft)
19.12.2017 15:00 0,6 C 94 % 1034,4 hPa 0,5 l/m 0,4 km/h (0 Bft) O-NO -0,2 C 0,6 C 2,7 km/h (1 Bft)
19.12.2017 16:00 0,3 C 94 % 1034,5 hPa 0,0 l/m 0,0 km/h (0 Bft) O-NO -0,5 C 0,3 C 0,4 km/h (0 Bft)
19.12.2017 17:00 0,0 C 95 % 1034,8 hPa 0,0 l/m 0,1 km/h (0 Bft) O-NO -0,7 C 0,0 C 1,5 km/h (1 Bft)
19.12.2017 18:00 -0,1 C 95 % 1034,8 hPa 0,0 l/m 0,4 km/h (0 Bft) O-NO -0,8 C -0,1 C 2,4 km/h (1 Bft)
19.12.2017 19:00 -0,2 C 95 % 1035,2 hPa 0,0 l/m 0,3 km/h (0 Bft) O-NO -0,9 C -0,2 C 2,0 km/h (1 Bft)
19.12.2017 20:00 -0,3 C 96 % 1035,3 hPa 0,0 l/m 1,4 km/h (1 Bft) O -0,9 C -0,3 C 4,4 km/h (1 Bft)
19.12.2017 21:00 -0,4 C 96 % 1035,3 hPa 0,0 l/m 1,4 km/h (1 Bft) O-NO -0,9 C -0,4 C 3,9 km/h (1 Bft)
19.12.2017 22:00 -0,4 C 96 % 1035,3 hPa 0,0 l/m 0,6 km/h (0 Bft) O-NO -1,0 C -0,4 C 3,3 km/h (1 Bft)
19.12.2017 23:00 -0,4 C 96 % 1035,0 hPa 0,0 l/m 0,8 km/h (0 Bft) O -1,0 C -0,4 C 3,3 km/h (1 Bft)
20.12.2017 00:00 -0,4 C 96 % 1035,0 hPa 0,0 l/m 0,4 km/h (0 Bft) NO -1,0 C -0,4 C 2,4 km/h (1 Bft)
20.12.2017 01:00 -0,4 C 96 % 1034,8 hPa 0,0 l/m 0,4 km/h (0 Bft) NO -1,0 C -0,4 C 2,4 km/h (1 Bft)
20.12.2017 02:00 -0,5 C 96 % 1034,4 hPa 0,0 l/m 1,0 km/h (0 Bft) O-NO -1,1 C -0,5 C 5,5 km/h (2 Bft)
20.12.2017 03:00 -0,4 C 96 % 1034,5 hPa 0,0 l/m 0,6 km/h (0 Bft) N-NO -0,9 C -0,4 C 3,9 km/h (1 Bft)
20.12.2017 04:00 -0,2 C 97 % 1034,1 hPa 0,0 l/m 0,7 km/h (0 Bft) O -0,7 C -0,2 C 3,3 km/h (1 Bft)
20.12.2017 05:00 -0,2 C 97 % 1033,8 hPa 0,0 l/m 0,9 km/h (0 Bft) O-NO -0,6 C -0,2 C 4,5 km/h (1 Bft)
20.12.2017 06:00 -0,0 C 97 % 1033,7 hPa 0,0 l/m 0,4 km/h (0 Bft) O-NO -0,4 C -0,0 C 2,4 km/h (1 Bft)
20.12.2017 07:00 0,0 C 97 % 1034,0 hPa 0,0 l/m 0,1 km/h (0 Bft) O -0,4 C 0,0 C 1,5 km/h (1 Bft)
20.12.2017 08:00 0,1 C 97 % 1034,2 hPa 0,0 l/m 0,1 km/h (0 Bft) O-NO -0,3 C 0,1 C 1,2 km/h (1 Bft)
20.12.2017 09:00 0,4 C 97 % 1034,5 hPa 0,3 l/m 0,2 km/h (0 Bft) O-NO -0,0 C 0,4 C 1,6 km/h (1 Bft)
20.12.2017 10:00 0,9 C 97 % 1034,8 hPa 0,8 l/m 0,8 km/h (0 Bft) O-NO 0,5 C 0,9 C 2,9 km/h (1 Bft)
20.12.2017 11:00 1,6 C 96 % 1034,6 hPa 1,0 l/m 1,5 km/h (1 Bft) O 0,9 C 1,6 C 4,1 km/h (1 Bft)
20.12.2017 12:00 1,7 C 95 % 1034,2 hPa 0,5 l/m 1,9 km/h (1 Bft) O-NO 0,9 C 1,7 C 5,2 km/h (1 Bft)
20.12.2017 13:00 1,7 C 93 % 1034,1 hPa 0,5 l/m 0,8 km/h (0 Bft) O 0,8 C 1,7 C 4,1 km/h (1 Bft)
20.12.2017 14:00 1,4 C 94 % 1034,3 hPa 0,5 l/m 0,3 km/h (0 Bft) O 0,6 C 1,4 C 1,2 km/h (1 Bft)
20.12.2017 15:00 1,3 C 95 % 1034,5 hPa 0,3 l/m 0,4 km/h (0 Bft) O-NO 0,6 C 1,3 C 1,9 km/h (1 Bft)
20.12.2017 16:00 1,1 C 96 % 1034,7 hPa 0,3 l/m 0,3 km/h (0 Bft) NO 0,5 C 1,1 C 2,3 km/h (1 Bft)
20.12.2017 17:00 0,8 C 96 % 1034,8 hPa 0,0 l/m 0,1 km/h (0 Bft) NO 0,3 C 0,8 C 0,8 km/h (0 Bft)
20.12.2017 18:00 0,5 C 97 % 1035,3 hPa 0,0 l/m 0,0 km/h (0 Bft) NO 0,1 C 0,5 C 0,3 km/h (0 Bft)
20.12.2017 19:00 0,5 C 97 % 1035,6 hPa 0,0 l/m 0,1 km/h (0 Bft) NO 0,1 C 0,5 C 1,3 km/h (1 Bft)
20.12.2017 20:00 0,6 C 97 % 1035,6 hPa 0,0 l/m 0,3 km/h (0 Bft) NO 0,2 C 0,6 C 1,6 km/h (1 Bft)
20.12.2017 21:00 0,6 C 97 % 1035,8 hPa 0,0 l/m 0,4 km/h (0 Bft) O-NO 0,2 C 0,6 C 2,1 km/h (1 Bft)
20.12.2017 22:00 0,6 C 97 % 1035,9 hPa 0,0 l/m 0,7 km/h (0 Bft) NO 0,2 C 0,6 C 3,3 km/h (1 Bft)
20.12.2017 23:00 0,7 C 98 % 1036,0 hPa 0,3 l/m 1,3 km/h (1 Bft) O 0,4 C 0,7 C 3,8 km/h (1 Bft)
21.12.2017 00:00 0,8 C 98 % 1036,2 hPa 0,0 l/m 0,2 km/h (0 Bft) O 0,5 C 0,8 C 2,3 km/h (1 Bft)
21.12.2017 01:00 0,8 C 98 % 1036,1 hPa 0,0 l/m 0,7 km/h (0 Bft) O-NO 0,5 C 0,8 C 3,5 km/h (1 Bft)
21.12.2017 02:00 0,9 C 98 % 1036,2 hPa 0,3 l/m 0,6 km/h (0 Bft) O-NO 0,6 C 0,9 C 3,3 km/h (1 Bft)
21.12.2017 03:00 0,9 C 98 % 1036,5 hPa 0,0 l/m 0,3 km/h (0 Bft) N-NO 0,6 C 0,9 C 2,1 km/h (1 Bft)
21.12.2017 04:00 0,9 C 98 % 1036,4 hPa 0,0 l/m 0,8 km/h (0 Bft) N-NO 0,7 C 0,9 C 5,0 km/h (1 Bft)
21.12.2017 05:00 0,9 C 98 % 1036,2 hPa 0,0 l/m 0,2 km/h (0 Bft) N 0,6 C 0,9 C 1,6 km/h (1 Bft)
21.12.2017 06:00 1,0 C 98 % 1036,4 hPa 0,0 l/m 0,1 km/h (0 Bft) N-NO 0,8 C 1,0 C 1,2 km/h (1 Bft)
21.12.2017 07:00 1,2 C 98 % 1036,7 hPa 0,0 l/m 0,3 km/h (0 Bft) NO 0,8 C 1,2 C 2,0 km/h (1 Bft)
21.12.2017 08:00 1,2 C 98 % 1036,6 hPa 0,0 l/m 1,4 km/h (1 Bft) NO 0,9 C 1,2 C 4,4 km/h (1 Bft)
21.12.2017 09:00 1,5 C 98 % 1036,9 hPa 0,0 l/m 1,3 km/h (1 Bft) NO 1,2 C 1,5 C 5,1 km/h (1 Bft)
21.12.2017 10:00 1,8 C 98 % 1037,3 hPa 0,0 l/m 0,9 km/h (0 Bft) NO 1,4 C 1,8 C 4,0 km/h (1 Bft)
21.12.2017 11:00 2,3 C 98 % 1037,0 hPa 0,0 l/m 2,8 km/h (1 Bft) O-NO 2,0 C 2,3 C 6,7 km/h (2 Bft)
21.12.2017 12:00 2,6 C 98 % 1036,5 hPa 0,0 l/m 2,3 km/h (1 Bft) O 2,3 C 2,6 C 5,5 km/h (2 Bft)
21.12.2017 13:00 3,3 C 98 % 1036,0 hPa 0,0 l/m 1,4 km/h (1 Bft) O 3,0 C 3,3 C 4,9 km/h (1 Bft)
21.12.2017 14:00 3,5 C 97 % 1035,6 hPa 0,3 l/m 4,8 km/h (1 Bft) O 3,1 C 3,4 C 12,3 km/h (2 Bft)
21.12.2017 15:00 3,5 C 97 % 1035,7 hPa 0,0 l/m 2,9 km/h (1 Bft) O 3,1 C 3,5 C 9,0 km/h (2 Bft)
21.12.2017 16:00 3,6 C 97 % 1035,6 hPa 0,0 l/m 4,0 km/h (1 Bft) O 3,2 C 3,6 C 10,5 km/h (2 Bft)
21.12.2017 17:00 3,6 C 97 % 1036,1 hPa 0,0 l/m 2,4 km/h (1 Bft) O-NO 3,1 C 3,6 C 9,5 km/h (2 Bft)
21.12.2017 18:00 3,4 C 97 % 1036,7 hPa 0,0 l/m 1,1 km/h (1 Bft) O-NO 3,0 C 3,4 C 5,8 km/h (2 Bft)
21.12.2017 19:00 3,3 C 97 % 1037,2 hPa 0,0 l/m 1,1 km/h (1 Bft) O 2,9 C 3,3 C 6,1 km/h (2 Bft)
21.12.2017 20:00 3,4 C 97 % 1037,4 hPa 0,0 l/m 2,1 km/h (1 Bft) O 3,0 C 3,4 C 7,4 km/h (2 Bft)
21.12.2017 21:00 3,6 C 97 % 1037,3 hPa 0,0 l/m 2,5 km/h (1 Bft) O-NO 3,2 C 3,6 C 6,7 km/h (2 Bft)
21.12.2017 22:00 3,7 C 97 % 1037,2 hPa 0,0 l/m 2,2 km/h (1 Bft) O 3,3 C 3,7 C 7,1 km/h (2 Bft)
21.12.2017 23:00 3,9 C 97 % 1037,0 hPa 0,0 l/m 3,0 km/h (1 Bft) O-NO 3,4 C 3,9 C 6,0 km/h (2 Bft)
22.12.2017 00:00 4,0 C 97 % 1036,6 hPa 0,0 l/m 2,6 km/h (1 Bft) O-NO 3,6 C 4,0 C 6,0 km/h (2 Bft)
22.12.2017 01:00 4,1 C 98 % 1036,0 hPa 0,0 l/m 2,0 km/h (1 Bft) O-NO 3,8 C 4,1 C 6,0 km/h (2 Bft)
22.12.2017 02:00 4,1 C 98 % 1035,5 hPa 0,0 l/m 2,9 km/h (1 Bft) O-NO 3,8 C 4,1 C 8,2 km/h (2 Bft)
22.12.2017 03:00 4,2 C 98 % 1035,2 hPa 0,0 l/m 0,6 km/h (0 Bft) N-NO 3,9 C 4,2 C 2,8 km/h (1 Bft)
22.12.2017 04:00 4,3 C 97 % 1034,9 hPa 0,0 l/m 0,3 km/h (0 Bft) O 3,9 C 4,3 C 1,6 km/h (1 Bft)
22.12.2017 05:00 4,3 C 97 % 1034,5 hPa 0,0 l/m 1,1 km/h (1 Bft) N-NO 3,8 C 4,3 C 4,7 km/h (1 Bft)
22.12.2017 06:00 3,7 C 97 % 1034,5 hPa 0,0 l/m 0,3 km/h (0 Bft) N-NW 3,2 C 3,7 C 1,9 km/h (1 Bft)
22.12.2017 07:00 3,3 C 97 % 1034,4 hPa 0,0 l/m 0,0 km/h (0 Bft) N-NW 3,0 C 3,3 C 0,4 km/h (0 Bft)
22.12.2017 08:00 3,9 C 98 % 1034,3 hPa 0,0 l/m 1,2 km/h (1 Bft) NO 3,6 C 3,9 C 3,9 km/h (1 Bft)
22.12.2017 09:00 4,6 C 98 % 1034,4 hPa 0,3 l/m 1,3 km/h (1 Bft) NO 4,3 C 4,6 C 5,3 km/h (1 Bft)
22.12.2017 10:00 5,1 C 97 % 1034,6 hPa 0,0 l/m 0,8 km/h (0 Bft) NO 4,6 C 5,1 C 4,4 km/h (1 Bft)
22.12.2017 11:00 5,7 C 96 % 1034,3 hPa 0,0 l/m 1,8 km/h (1 Bft) O 5,2 C 5,7 C 5,6 km/h (2 Bft)
22.12.2017 12:00 6,2 C 96 % 1034,0 hPa 0,0 l/m 2,5 km/h (1 Bft) O-NO 5,5 C 6,2 C 6,5 km/h (2 Bft)
22.12.2017 13:00 6,4 C 95 % 1033,7 hPa 0,0 l/m 2,3 km/h (1 Bft) O-NO 5,6 C 6,4 C 7,8 km/h (2 Bft)
22.12.2017 14:00 6,5 C 94 % 1033,7 hPa 0,0 l/m 2,1 km/h (1 Bft) O 5,6 C 6,5 C 7,4 km/h (2 Bft)
22.12.2017 15:00 6,1 C 94 % 1033,9 hPa 0,0 l/m 1,9 km/h (1 Bft) O-NO 5,3 C 6,1 C 6,5 km/h (2 Bft)
22.12.2017 16:00 5,8 C 95 % 1034,0 hPa 0,0 l/m 1,4 km/h (1 Bft) O 5,1 C 5,8 C 4,8 km/h (1 Bft)
22.12.2017 17:00 5,5 C 95 % 1034,6 hPa 0,0 l/m 0,6 km/h (0 Bft) O-NO 4,8 C 5,5 C 4,0 km/h (1 Bft)
22.12.2017 18:00 5,3 C 96 % 1034,9 hPa 0,0 l/m 0,5 km/h (0 Bft) O-NO 4,7 C 5,3 C 3,5 km/h (1 Bft)
22.12.2017 19:00 5,3 C 96 % 1035,3 hPa 0,0 l/m 0,6 km/h (0 Bft) NO 4,8 C 5,3 C 4,0 km/h (1 Bft)
22.12.2017 20:00 5,4 C 96 % 1035,5 hPa 0,0 l/m 0,4 km/h (0 Bft) NO 4,8 C 5,4 C 2,9 km/h (1 Bft)
22.12.2017 21:00 5,3 C 96 % 1035,7 hPa 0,0 l/m 0,7 km/h (0 Bft) O-NO 4,7 C 5,3 C 4,4 km/h (1 Bft)
22.12.2017 22:00 5,2 C 96 % 1036,0 hPa 0,0 l/m 0,4 km/h (0 Bft) O 4,6 C 5,2 C 3,1 km/h (1 Bft)
22.12.2017 23:00 5,2 C 96 % 1036,2 hPa 0,0 l/m 0,0 km/h (0 Bft) O 4,6 C 5,2 C 0,7 km/h (0 Bft)
23.12.2017 00:00 5,1 C 96 % 1036,4 hPa 0,0 l/m 0,3 km/h (0 Bft) O 4,5 C 5,1 C 2,1 km/h (1 Bft)
23.12.2017 01:00 5,1 C 96 % 1036,2 hPa 0,0 l/m 0,8 km/h (0 Bft) O-NO 4,6 C 5,1 C 4,7 km/h (1 Bft)
23.12.2017 02:00 5,0 C 97 % 1036,1 hPa 0,0 l/m 0,0 km/h (0 Bft) O 4,5 C 5,0 C 0,1 km/h (0 Bft)
23.12.2017 03:00 4,5 C 96 % 1035,6 hPa 0,0 l/m 0,4 km/h (0 Bft) O-NO 4,0 C 4,5 C 2,9 km/h (1 Bft)
23.12.2017 04:00 4,4 C 97 % 1035,5 hPa 0,0 l/m 0,4 km/h (0 Bft) O 4,0 C 4,4 C 3,2 km/h (1 Bft)
23.12.2017 05:00 4,6 C 97 % 1035,5 hPa 0,0 l/m 0,5 km/h (0 Bft) O 4,2 C 4,6 C 3,6 km/h (1 Bft)
23.12.2017 06:00 4,7 C 97 % 1035,5 hPa 0,0 l/m 0,7 km/h (0 Bft) O 4,3 C 4,7 C 4,1 km/h (1 Bft)
23.12.2017 07:00 4,7 C 97 % 1035,7 hPa 0,0 l/m 0,0 km/h (0 Bft) O 4,3 C 4,7 C 1,3 km/h (1 Bft)
23.12.2017 08:00 4,7 C 98 % 1035,4 hPa 0,0 l/m 0,9 km/h (0 Bft) N-NO 4,4 C 4,7 C 4,8 km/h (1 Bft)
23.12.2017 09:00 4,8 C 97 % 1035,4 hPa 0,0 l/m 1,8 km/h (1 Bft) N-NO 4,4 C 4,8 C 6,1 km/h (2 Bft)
23.12.2017 10:00 5,0 C 97 % 1035,9 hPa 0,3 l/m 1,0 km/h (0 Bft) O-NO 4,6 C 5,0 C 4,7 km/h (1 Bft)
23.12.2017 11:00 5,3 C 97 % 1035,8 hPa 0,0 l/m 1,6 km/h (1 Bft) O 4,8 C 5,3 C 5,1 km/h (1 Bft)
23.12.2017 12:00 5,4 C 97 % 1035,5 hPa 0,0 l/m 1,7 km/h (1 Bft) NO 4,9 C 5,4 C 5,3 km/h (1 Bft)
23.12.2017 13:00 5,4 C 96 % 1035,2 hPa 0,0 l/m 2,3 km/h (1 Bft) O-NO 4,8 C 5,4 C 7,1 km/h (2 Bft)
23.12.2017 14:00 5,3 C 95 % 1035,0 hPa 0,0 l/m 3,0 km/h (1 Bft) O 4,5 C 5,3 C 8,2 km/h (2 Bft)
23.12.2017 15:00 5,0 C 95 % 1034,8 hPa 0,3 l/m 2,4 km/h (1 Bft) O-NO 4,3 C 5,0 C 7,8 km/h (2 Bft)
23.12.2017 16:00 4,8 C 95 % 1034,8 hPa 0,0 l/m 2,4 km/h (1 Bft) O-NO 4,1 C 4,8 C 7,5 km/h (2 Bft)
23.12.2017 17:00 4,7 C 94 % 1034,6 hPa 0,0 l/m 1,4 km/h (1 Bft) O-NO 3,9 C 4,7 C 4,7 km/h (1 Bft)
23.12.2017 18:00 4,7 C 94 % 1034,4 hPa 0,0 l/m 2,1 km/h (1 Bft) O-NO 3,8 C 4,7 C 7,1 km/h (2 Bft)
23.12.2017 19:00 4,7 C 95 % 1034,1 hPa 0,0 l/m 4,1 km/h (1 Bft) O 4,0 C 4,7 C 11,4 km/h (2 Bft)
23.12.2017 20:00 4,6 C 95 % 1034,2 hPa 0,0 l/m 4,5 km/h (1 Bft) O 3,8 C 4,5 C 13,0 km/h (3 Bft)
23.12.2017 21:00 4,3 C 95 % 1034,0 hPa 0,0 l/m 4,2 km/h (1 Bft) O 3,7 C 4,4 C 13,2 km/h (3 Bft)
23.12.2017 22:00 4,2 C 95 % 1033,8 hPa 0,0 l/m 6,5 km/h (2 Bft) O 3,5 C 3,6 C 16,9 km/h (3 Bft)
23.12.2017 23:00 3,9 C 95 % 1033,7 hPa 0,0 l/m 6,0 km/h (2 Bft) O-NO 3,2 C 3,5 C 14,2 km/h (3 Bft)
24.12.2017 00:00 3,9 C 95 % 1033,6 hPa 0,0 l/m 4,1 km/h (1 Bft) O-NO 3,2 C 3,9 C 10,6 km/h (2 Bft)
24.12.2017 01:00 3,7 C 95 % 1033,2 hPa 0,0 l/m 5,0 km/h (1 Bft) O-NO 3,0 C 3,7 C 14,5 km/h (3 Bft)
24.12.2017 02:00 3,6 C 95 % 1033,0 hPa 0,0 l/m 4,0 km/h (1 Bft) O 2,9 C 3,6 C 10,9 km/h (2 Bft)
24.12.2017 03:00 3,6 C 95 % 1032,7 hPa 0,0 l/m 3,7 km/h (1 Bft) O-NO 2,8 C 3,6 C 10,9 km/h (2 Bft)
24.12.2017 04:00 3,3 C 95 % 1032,0 hPa 0,0 l/m 4,0 km/h (1 Bft) NO 2,6 C 3,3 C 11,7 km/h (2 Bft)
24.12.2017 05:00 3,1 C 96 % 1031,9 hPa 0,0 l/m 5,1 km/h (1 Bft) O 2,5 C 3,1 C 15,3 km/h (3 Bft)
24.12.2017 06:00 2,8 C 96 % 1031,7 hPa 0,0 l/m 4,0 km/h (1 Bft) O-NO 2,3 C 2,8 C 11,6 km/h (2 Bft)
24.12.2017 07:00 2,8 C 96 % 1031,6 hPa 0,0 l/m 4,5 km/h (1 Bft) O 2,2 C 2,7 C 12,6 km/h (3 Bft)
24.12.2017 08:00 2,7 C 96 % 1031,6 hPa 0,0 l/m 2,4 km/h (1 Bft) O-NO 2,1 C 2,7 C 8,4 km/h (2 Bft)
24.12.2017 09:00 2,7 C 96 % 1031,2 hPa 0,0 l/m 3,8 km/h (1 Bft) O-NO 2,1 C 2,7 C 11,9 km/h (2 Bft)
24.12.2017 10:00 2,7 C 95 % 1031,3 hPa 0,0 l/m 2,2 km/h (1 Bft) O-NO 2,0 C 2,7 C 8,3 km/h (2 Bft)
24.12.2017 11:00 2,9 C 96 % 1031,0 hPa 0,0 l/m 2,9 km/h (1 Bft) O-NO 2,3 C 2,9 C 7,5 km/h (2 Bft)
24.12.2017 12:00 3,1 C 96 % 1030,4 hPa 0,0 l/m 1,4 km/h (1 Bft) N-NO 2,4 C 3,1 C 5,5 km/h (2 Bft)
24.12.2017 13:00 3,2 C 95 % 1029,5 hPa 0,0 l/m 3,9 km/h (1 Bft) O 2,4 C 3,2 C 11,7 km/h (2 Bft)
24.12.2017 14:00 3,1 C 95 % 1029,0 hPa 0,0 l/m 4,2 km/h (1 Bft) NO 2,4 C 3,1 C 11,8 km/h (2 Bft)
24.12.2017 15:00 2,8 C 95 % 1028,7 hPa 0,0 l/m 3,8 km/h (1 Bft) O-NO 2,1 C 2,8 C 10,9 km/h (2 Bft)
24.12.2017 16:00 2,5 C 96 % 1028,4 hPa 0,0 l/m 3,5 km/h (1 Bft) O-NO 1,9 C 2,5 C 10,3 km/h (2 Bft)
24.12.2017 17:00 2,2 C 96 % 1028,4 hPa 0,0 l/m 2,2 km/h (1 Bft) O-NO 1,7 C 2,2 C 6,5 km/h (2 Bft)
24.12.2017 18:00 2,1 C 96 % 1028,5 hPa 0,0 l/m 1,9 km/h (1 Bft) O 1,6 C 2,1 C 7,1 km/h (2 Bft)
24.12.2017 19:00 2,1 C 96 % 1028,3 hPa 0,0 l/m 2,1 km/h (1 Bft) NO 1,5 C 2,1 C 6,5 km/h (2 Bft)
24.12.2017 20:00 1,9 C 96 % 1027,8 hPa 0,0 l/m 2,9 km/h (1 Bft) O-NO 1,3 C 1,9 C 8,2 km/h (2 Bft)
24.12.2017 21:00 1,8 C 96 % 1027,5 hPa 0,0 l/m 3,5 km/h (1 Bft) O 1,2 C 1,8 C 9,5 km/h (2 Bft)
24.12.2017 22:00 1,6 C 96 % 1027,0 hPa 0,0 l/m 3,3 km/h (1 Bft) O-NO 1,0 C 1,6 C 10,9 km/h (2 Bft)
24.12.2017 23:00 1,4 C 96 % 1026,8 hPa 0,0 l/m 1,8 km/h (1 Bft) O-NO 0,9 C 1,4 C 5,5 km/h (2 Bft)
Min-Datum _ 18.12.17 18.12.17 18.12.17 - 24.12.17 - 18.12.17 18.12.17 24.12.17
_ Min-Zeit 01:00 03:25 08:15 - 23:51 - 00:55 05:20 23:51
Minimum _ -2,6 C 90 % 1020,5 hPa - 0,0 km/h (0 Bft) - -3,5 C -2,8 C 0,0 km/h (0 Bft)
Max-Datum _ 22.12.17 23.12.17 21.12.17 20.12.17 23.12.17 - 22.12.17 22.12.17 24.12.17
_ Max-Zeit 14:25 09:00 21:00 11:00 22:40 - 12:35 14:25 03:25
Maximum _ 6,6 C 98 % 1037,5 hPa 1,0 l/m 10,0 km/h
O (2 Bft)
- 5,7 C 6,6 C 22,5 km/h
O-NO (4 Bft)
Durchschnitt _ 2,0 C 96 % 1032,7 hPa #10,2 l/m 1,5 km/h (1 Bft) O-NO 1,4 C 2,0 C 5,0 km/h (1 Bft)